createdAt,value
2019-06-26T00:00:09.864Z,26.31
2019-06-26T00:01:09.751Z,26.25
2019-06-26T00:02:10.063Z,26.25
2019-06-26T00:03:09.607Z,26.25
2019-06-26T00:04:10.021Z,26.31
2019-06-26T00:05:09.601Z,26.25
2019-06-26T00:06:09.898Z,26.31
2019-06-26T00:07:09.263Z,26.37
2019-06-26T00:08:09.566Z,26.37
2019-06-26T00:09:10.228Z,26.31
2019-06-26T00:10:09.844Z,26.37
2019-06-26T00:11:10.252Z,26.37
2019-06-26T00:12:09.516Z,26.37
2019-06-26T00:13:22.058Z,26.37
2019-06-26T00:14:09.507Z,26.37
2019-06-26T00:15:10.051Z,26.37
2019-06-26T00:16:09.661Z,26.44
2019-06-26T00:17:09.981Z,26.44
2019-06-26T00:18:09.329Z,26.44
2019-06-26T00:19:09.607Z,26.44
2019-06-26T00:20:10.242Z,26.5
2019-06-26T00:21:09.625Z,26.5
2019-06-26T00:22:09.987Z,26.5
2019-06-26T00:23:09.295Z,26.44
2019-06-26T00:24:09.997Z,26.37
2019-06-26T00:25:09.534Z,26.44
2019-06-26T00:26:09.891Z,26.44
2019-06-26T00:27:09.213Z,26.44
2019-06-26T00:28:09.521Z,26.44
2019-06-26T00:29:09.804Z,26.37
2019-06-26T00:30:10.415Z,26.37
2019-06-26T00:31:09.726Z,26.37
2019-06-26T00:32:10.112Z,26.31
2019-06-26T00:33:09.432Z,26.25
2019-06-26T00:34:09.842Z,26.25
2019-06-26T00:35:10.399Z,26.19
2019-06-26T00:36:09.714Z,26.19
2019-06-26T00:37:10.105Z,26.19
2019-06-26T00:38:09.478Z,26.19
2019-06-26T00:39:09.852Z,26.25
2019-06-26T00:40:10.540Z,26.25
2019-06-26T00:41:09.286Z,26.25
2019-06-26T00:42:09.581Z,26.19
2019-06-26T00:43:09.828Z,26.19
2019-06-26T00:44:10.143Z,26.19
2019-06-26T00:45:09.700Z,26.19
2019-06-26T00:46:10.046Z,26.19
2019-06-26T00:47:09.403Z,26.12
2019-06-26T00:48:09.876Z,26.12
2019-06-26T00:49:09.209Z,26.12
2019-06-26T00:50:09.771Z,26.19
2019-06-26T00:51:09.289Z,26.25
2019-06-26T00:52:09.664Z,26.25
2019-06-26T00:53:09.989Z,26.31
2019-06-26T00:54:09.511Z,26.31
2019-06-26T00:55:09.848Z,26.31
2019-06-26T00:56:09.366Z,26.25
2019-06-26T00:57:09.679Z,26.19
2019-06-26T00:58:09.915Z,26.19
2019-06-26T00:59:09.339Z,26.19
2019-06-26T01:00:10.029Z,26.19
2019-06-26T01:01:09.868Z,26.12
2019-06-26T01:02:10.173Z,26.12
2019-06-26T01:03:09.432Z,26.06
2019-06-26T01:04:09.731Z,26
2019-06-26T01:05:10.200Z,26
2019-06-26T01:06:09.559Z,25.94
2019-06-26T01:07:09.835Z,25.94
2019-06-26T01:08:10.117Z,25.87
2019-06-26T01:09:09.578Z,25.87
2019-06-26T01:10:10.175Z,25.87
2019-06-26T01:11:09.592Z,25.81
2019-06-26T01:12:09.909Z,25.81
2019-06-26T01:13:09.269Z,25.81
2019-06-26T01:14:09.564Z,25.87
2019-06-26T01:15:09.956Z,25.87
2019-06-26T01:16:10.032Z,25.87
2019-06-26T01:17:09.388Z,25.87
2019-06-26T01:18:09.723Z,25.81
2019-06-26T01:19:10.003Z,25.81
2019-06-26T01:20:09.609Z,25.81
2019-06-26T01:21:09.976Z,25.75
2019-06-26T01:22:09.466Z,25.75
2019-06-26T01:23:09.809Z,25.69
2019-06-26T01:24:10.149Z,25.69
2019-06-26T01:25:09.554Z,25.62
2019-06-26T01:26:09.922Z,25.62
2019-06-26T01:27:09.377Z,25.62
2019-06-26T01:28:09.671Z,25.62
2019-06-26T01:29:09.953Z,25.62
2019-06-26T01:30:09.917Z,25.56
2019-06-26T01:31:09.292Z,25.56
2019-06-26T01:32:09.642Z,25.62
2019-06-26T01:33:09.918Z,25.69
2019-06-26T01:34:09.268Z,25.69
2019-06-26T01:35:09.681Z,25.69
2019-06-26T01:36:09.966Z,25.69
2019-06-26T01:37:09.349Z,25.69
2019-06-26T01:38:09.696Z,25.69
2019-06-26T01:39:10.301Z,25.62
2019-06-26T01:40:09.883Z,25.62
2019-06-26T01:41:09.293Z,25.62
2019-06-26T01:42:09.768Z,25.56
2019-06-26T01:43:10.045Z,25.56
2019-06-26T01:44:20.645Z,25.56
2019-06-26T01:45:10.175Z,25.56
2019-06-26T01:46:09.423Z,25.56
2019-06-26T01:47:09.799Z,25.5
2019-06-26T01:48:10.164Z,25.5
2019-06-26T01:49:09.486Z,25.44
2019-06-26T01:50:10.170Z,25.37
2019-06-26T01:51:09.489Z,25.37
2019-06-26T01:52:09.757Z,25.37
2019-06-26T01:53:10.125Z,25.37
2019-06-26T01:54:09.437Z,25.37
2019-06-26T01:55:09.907Z,25.44
2019-06-26T01:56:09.213Z,25.44
2019-06-26T01:57:09.501Z,25.5
2019-06-26T01:58:09.960Z,25.5
2019-06-26T01:59:09.297Z,25.5
2019-06-26T02:00:10.132Z,25.44
2019-06-26T02:01:09.429Z,25.37
2019-06-26T02:02:09.800Z,25.37
2019-06-26T02:03:10.157Z,25.37
2019-06-26T02:04:09.491Z,25.37
2019-06-26T02:05:09.931Z,25.31
2019-06-26T02:06:09.341Z,25.31
2019-06-26T02:07:09.715Z,25.31
2019-06-26T02:08:10.215Z,25.25
2019-06-26T02:09:09.663Z,25.25
2019-06-26T02:10:10.135Z,25.19
2019-06-26T02:11:09.447Z,25.19
2019-06-26T02:12:09.785Z,25.12
2019-06-26T02:13:10.234Z,25.12
2019-06-26T02:14:09.521Z,25.06
2019-06-26T02:15:09.990Z,25.06
2019-06-26T02:16:09.332Z,25.06
2019-06-26T02:17:09.687Z,25.06
2019-06-26T02:18:10.049Z,25.06
2019-06-26T02:19:09.356Z,25.06
2019-06-26T02:20:09.907Z,25
2019-06-26T02:21:09.263Z,25
2019-06-26T02:22:09.563Z,24.94
2019-06-26T02:23:10.045Z,24.94
2019-06-26T02:24:09.354Z,24.87
2019-06-26T02:25:09.807Z,24.87
2019-06-26T02:26:10.128Z,24.87
2019-06-26T02:27:09.406Z,24.81
2019-06-26T02:28:09.725Z,24.81
2019-06-26T02:29:10.045Z,24.81
2019-06-26T02:30:09.562Z,24.75
2019-06-26T02:31:09.736Z,24.75
2019-06-26T02:32:10.089Z,24.75
2019-06-26T02:33:09.440Z,24.75
2019-06-26T02:34:09.696Z,24.69
2019-06-26T02:35:15.554Z,24.69
2019-06-26T02:36:09.879Z,24.69
2019-06-26T02:37:09.249Z,24.62
2019-06-26T02:38:09.695Z,24.62
2019-06-26T02:39:10.125Z,24.62
2019-06-26T02:40:09.705Z,24.62
2019-06-26T02:41:09.386Z,24.56
2019-06-26T02:42:09.773Z,24.56
2019-06-26T02:43:13.500Z,24.56
2019-06-26T02:44:09.836Z,24.56
2019-06-26T02:45:10.436Z,24.56
2019-06-26T02:46:09.876Z,24.5
2019-06-26T02:47:25.813Z,24.5
2019-06-26T02:48:10.148Z,24.5
2019-06-26T02:49:09.506Z,24.5
2019-06-26T02:50:10.082Z,24.5
2019-06-26T02:51:09.510Z,24.44
2019-06-26T02:52:09.809Z,24.44
2019-06-26T02:53:10.090Z,24.44
2019-06-26T02:54:09.428Z,24.44
2019-06-26T02:55:09.955Z,24.44
2019-06-26T02:56:09.339Z,24.44
2019-06-26T02:57:09.671Z,24.44
2019-06-26T02:58:09.962Z,24.37
2019-06-26T02:59:09.379Z,24.37
2019-06-26T03:00:10.126Z,24.37
2019-06-26T03:01:09.503Z,24.37
2019-06-26T03:02:09.819Z,24.37
2019-06-26T03:03:10.139Z,24.37
2019-06-26T03:04:09.510Z,24.31
2019-06-26T03:05:09.937Z,24.31
2019-06-26T03:06:09.256Z,24.31
2019-06-26T03:07:09.539Z,24.31
2019-06-26T03:08:09.841Z,24.31
2019-06-26T03:09:10.436Z,24.31
2019-06-26T03:10:10.011Z,24.25
2019-06-26T03:11:09.364Z,24.25
2019-06-26T03:12:09.605Z,24.25
2019-06-26T03:13:09.874Z,24.25
2019-06-26T03:14:10.263Z,24.25
2019-06-26T03:15:15.231Z,24.25
2019-06-26T03:16:09.507Z,24.19
2019-06-26T03:17:09.784Z,24.19
2019-06-26T03:18:10.062Z,24.19
2019-06-26T03:19:09.393Z,24.19
2019-06-26T03:20:10.025Z,24.19
2019-06-26T03:21:09.333Z,24.19
2019-06-26T03:22:09.635Z,24.19
2019-06-26T03:23:09.976Z,24.12
2019-06-26T03:24:09.455Z,24.12
2019-06-26T03:25:09.840Z,24.12
2019-06-26T03:26:10.125Z,24.12
2019-06-26T03:27:12.472Z,24.12
2019-06-26T03:28:09.771Z,24.06
2019-06-26T03:29:10.097Z,24.06
2019-06-26T03:30:09.822Z,24.06
2019-06-26T03:31:09.401Z,24.12
2019-06-26T03:32:09.760Z,24.12
2019-06-26T03:33:10.118Z,24.19
2019-06-26T03:34:09.576Z,24.19
2019-06-26T03:35:10.042Z,24.25
2019-06-26T03:36:09.394Z,24.25
2019-06-26T03:37:09.670Z,24.31
2019-06-26T03:38:10.043Z,24.37
2019-06-26T03:39:09.481Z,24.44
2019-06-26T03:40:10.250Z,24.44
2019-06-26T03:41:09.827Z,24.5
2019-06-26T03:42:10.055Z,24.5
2019-06-26T03:43:09.353Z,24.56
2019-06-26T03:44:09.687Z,24.56
2019-06-26T03:45:26.676Z,24.56
2019-06-26T03:46:10.171Z,24.62
2019-06-26T03:47:09.419Z,24.62
2019-06-26T03:48:09.722Z,24.62
2019-06-26T03:49:10.044Z,24.62
2019-06-26T03:50:09.814Z,24.69
2019-06-26T03:51:13.659Z,24.69
2019-06-26T03:52:09.345Z,24.69
2019-06-26T03:53:09.618Z,24.69
2019-06-26T03:54:09.868Z,24.69
2019-06-26T03:55:10.491Z,24.69
2019-06-26T03:56:09.864Z,24.69
2019-06-26T03:57:09.237Z,24.75
2019-06-26T03:58:09.663Z,24.75
2019-06-26T03:59:09.931Z,24.69
2019-06-26T04:00:09.749Z,24.69
2019-06-26T04:01:09.471Z,24.75
2019-06-26T04:02:09.685Z,24.75
2019-06-26T04:03:10.000Z,24.75
2019-06-26T04:04:09.298Z,24.69
2019-06-26T04:05:09.928Z,24.69
2019-06-26T04:06:09.545Z,24.69
2019-06-26T04:07:09.836Z,24.69
2019-06-26T04:08:10.147Z,24.69
2019-06-26T04:09:09.519Z,24.69
2019-06-26T04:10:10.429Z,24.69
2019-06-26T04:11:10.737Z,24.69
2019-06-26T04:12:10.054Z,24.69
2019-06-26T04:13:09.402Z,24.75
2019-06-26T04:14:09.827Z,24.75
2019-06-26T04:15:10.206Z,24.75
2019-06-26T04:16:09.558Z,24.75
2019-06-26T04:17:09.895Z,24.69
2019-06-26T04:18:09.368Z,24.69
2019-06-26T04:19:09.643Z,24.69
2019-06-26T04:20:10.298Z,24.62
2019-06-26T04:21:09.689Z,24.62
2019-06-26T04:22:09.955Z,24.62
2019-06-26T04:23:09.196Z,24.62
2019-06-26T04:24:09.472Z,24.62
2019-06-26T04:25:10.090Z,24.56
2019-06-26T04:26:10.123Z,24.62
2019-06-26T04:27:09.374Z,24.56
2019-06-26T04:28:12.517Z,24.56
2019-06-26T04:29:09.863Z,24.56
2019-06-26T04:30:10.369Z,24.56
2019-06-26T04:31:09.993Z,24.56
2019-06-26T04:32:09.280Z,24.62
2019-06-26T04:33:09.596Z,24.62
2019-06-26T04:34:09.799Z,24.56
2019-06-26T04:35:10.176Z,24.62
2019-06-26T04:36:09.691Z,24.62
2019-06-26T04:37:10.015Z,24.56
2019-06-26T04:38:09.384Z,24.56
2019-06-26T04:39:09.836Z,24.56
2019-06-26T04:40:10.413Z,24.56
2019-06-26T04:41:09.853Z,24.56
2019-06-26T04:42:10.176Z,24.56
2019-06-26T04:43:09.474Z,24.56
2019-06-26T04:44:09.811Z,24.56
2019-06-26T04:45:10.327Z,24.56
2019-06-26T04:46:09.854Z,24.56
2019-06-26T04:47:10.114Z,24.56
2019-06-26T04:48:13.446Z,24.62
2019-06-26T04:49:09.743Z,24.62
2019-06-26T04:50:10.277Z,24.62
2019-06-26T04:51:09.687Z,24.62
2019-06-26T04:52:10.018Z,24.62
2019-06-26T04:53:09.368Z,24.62
2019-06-26T04:54:09.725Z,24.69
2019-06-26T04:55:10.199Z,24.69
2019-06-26T04:56:09.652Z,24.69
2019-06-26T04:57:09.950Z,24.62
2019-06-26T04:58:09.269Z,24.62
2019-06-26T04:59:09.716Z,24.62
2019-06-26T05:00:11.734Z,24.56
2019-06-26T05:01:09.923Z,24.62
2019-06-26T05:02:09.347Z,24.62
2019-06-26T05:03:09.760Z,24.62
2019-06-26T05:04:10.093Z,24.62
2019-06-26T05:05:09.444Z,24.62
2019-06-26T05:06:09.395Z,24.69
2019-06-26T05:07:09.739Z,24.69
2019-06-26T05:08:10.132Z,24.69
2019-06-26T05:09:09.531Z,24.69
2019-06-26T05:10:10.074Z,24.69
2019-06-26T05:11:12.406Z,24.69
2019-06-26T05:12:10.052Z,24.69
2019-06-26T05:13:09.289Z,24.75
2019-06-26T05:14:09.683Z,24.75
2019-06-26T05:15:10.111Z,24.75
2019-06-26T05:16:24.906Z,24.69
2019-06-26T05:17:09.570Z,24.75
2019-06-26T05:18:09.858Z,24.75
2019-06-26T05:19:10.058Z,24.75
2019-06-26T05:20:09.719Z,24.75
2019-06-26T05:21:09.225Z,24.75
2019-06-26T05:22:09.479Z,24.75
2019-06-26T05:23:09.793Z,24.75
2019-06-26T05:24:10.004Z,24.75
2019-06-26T05:25:09.409Z,24.75
2019-06-26T05:26:09.698Z,24.69
2019-06-26T05:27:09.888Z,24.75
2019-06-26T05:28:12.851Z,24.75
2019-06-26T05:29:10.386Z,24.75
2019-06-26T05:30:09.805Z,24.81
2019-06-26T05:31:10.120Z,24.81
2019-06-26T05:32:09.368Z,24.81
2019-06-26T05:33:09.650Z,24.87
2019-06-26T05:34:14.189Z,24.87
2019-06-26T05:35:09.558Z,24.87
2019-06-26T05:36:09.851Z,24.94
2019-06-26T05:37:10.147Z,24.94
2019-06-26T05:38:09.369Z,24.94
2019-06-26T05:39:09.681Z,24.94
2019-06-26T05:40:10.076Z,24.94
2019-06-26T05:41:09.379Z,25
2019-06-26T05:42:12.968Z,25
2019-06-26T05:43:09.322Z,25
2019-06-26T05:44:09.812Z,25
2019-06-26T05:45:10.360Z,25
2019-06-26T05:46:09.622Z,25.06
2019-06-26T05:47:13.333Z,25.06
2019-06-26T05:48:09.546Z,25.06
2019-06-26T05:49:09.803Z,25.06
2019-06-26T05:50:10.891Z,25.12
2019-06-26T05:51:09.242Z,25.06
2019-06-26T05:52:09.534Z,25.12
2019-06-26T05:53:09.757Z,25.12
2019-06-26T05:54:10.128Z,25.12
2019-06-26T05:55:09.456Z,25.19
2019-06-26T05:56:09.440Z,25.19
2019-06-26T05:57:09.767Z,25.19
2019-06-26T05:58:10.052Z,25.25
2019-06-26T05:59:09.375Z,25.19
2019-06-26T06:00:10.072Z,25.25
2019-06-26T06:01:09.323Z,25.25
2019-06-26T06:02:09.582Z,25.25
2019-06-26T06:03:09.807Z,25.19
2019-06-26T06:04:10.291Z,25.19
2019-06-26T06:05:10.142Z,25.19
2019-06-26T06:06:09.420Z,25.19
2019-06-26T06:07:09.590Z,25.19
2019-06-26T06:08:09.860Z,25.19
2019-06-26T06:09:10.143Z,25.19
2019-06-26T06:10:09.688Z,25.12
2019-06-26T06:11:09.636Z,25.19
2019-06-26T06:12:09.824Z,25.19
2019-06-26T06:13:10.052Z,25.19
2019-06-26T06:14:09.557Z,25.19
2019-06-26T06:15:10.021Z,25.19
2019-06-26T06:16:12.843Z,25.19
2019-06-26T06:17:10.154Z,25.19
2019-06-26T06:18:09.473Z,25.25
2019-06-26T06:19:09.924Z,25.25
2019-06-26T06:20:09.359Z,25.25
2019-06-26T06:21:09.676Z,25.25
2019-06-26T06:22:09.881Z,25.25
2019-06-26T06:23:09.175Z,25.31
2019-06-26T06:24:09.527Z,25.25
2019-06-26T06:25:10.149Z,25.31
2019-06-26T06:26:09.755Z,25.31
2019-06-26T06:27:09.923Z,25.31
2019-06-26T06:28:21.437Z,25.31
2019-06-26T06:29:17.951Z,25.31
2019-06-26T06:30:16.730Z,25.37
2019-06-26T06:32:21.822Z,25.37
2019-06-26T06:33:11.590Z,25.37
2019-06-26T06:34:22.835Z,25.37
2019-06-26T06:36:20.319Z,25.44
2019-06-26T06:37:12.819Z,25.44
2019-06-26T06:38:09.672Z,25.44
2019-06-26T06:39:10.007Z,25.37
2019-06-26T06:40:10.987Z,25.44
2019-06-26T06:41:09.416Z,25.44
2019-06-26T06:42:09.627Z,25.5
2019-06-26T06:43:13.859Z,25.5
2019-06-26T06:44:10.111Z,25.44
2019-06-26T06:45:09.771Z,25.44
2019-06-26T06:46:10.114Z,25.44
2019-06-26T06:47:13.614Z,25.44
2019-06-26T06:48:09.813Z,25.5
2019-06-26T06:49:09.126Z,25.44
2019-06-26T06:50:09.720Z,25.44
2019-06-26T06:51:09.339Z,25.5
2019-06-26T06:52:09.565Z,25.5
2019-06-26T06:53:09.790Z,25.5
2019-06-26T06:54:10.062Z,25.5
2019-06-26T06:55:09.569Z,25.5
2019-06-26T06:56:09.828Z,25.5
2019-06-26T06:57:10.053Z,25.5
2019-06-26T06:58:09.435Z,25.5
2019-06-26T06:59:09.730Z,25.56
2019-06-26T07:00:10.440Z,25.56
2019-06-26T07:01:10.141Z,25.56
2019-06-26T07:02:09.450Z,25.56
2019-06-26T07:03:09.684Z,25.62
2019-06-26T07:04:09.951Z,25.62
2019-06-26T07:05:09.545Z,25.69
2019-06-26T07:06:09.946Z,25.69
2019-06-26T07:07:09.153Z,25.69
2019-06-26T07:08:10.467Z,25.69
2019-06-26T07:09:10.063Z,25.69
2019-06-26T07:10:10.834Z,25.75
2019-06-26T07:11:10.106Z,25.75
2019-06-26T07:12:09.934Z,25.75
2019-06-26T07:13:09.455Z,25.75
2019-06-26T07:14:09.964Z,25.81
2019-06-26T07:15:09.436Z,25.81
2019-06-26T07:16:09.679Z,25.81
2019-06-26T07:17:26.243Z,25.75
2019-06-26T07:18:09.510Z,25.75
2019-06-26T07:19:09.814Z,25.75
2019-06-26T07:20:10.301Z,25.75
2019-06-26T07:21:09.789Z,25.81
2019-06-26T07:22:13.570Z,25.81
2019-06-26T07:23:09.870Z,25.87
2019-06-26T07:24:10.139Z,25.87
2019-06-26T07:25:09.597Z,25.87
2019-06-26T07:26:13.126Z,25.94
2019-06-26T07:27:09.746Z,25.94
2019-06-26T07:28:10.128Z,25.94
2019-06-26T07:29:09.782Z,26
2019-06-26T07:30:10.357Z,26
2019-06-26T07:31:09.619Z,26
2019-06-26T07:32:09.972Z,26
2019-06-26T07:33:09.195Z,26
2019-06-26T07:34:09.468Z,26.06
2019-06-26T07:35:09.827Z,26.06
2019-06-26T07:36:10.154Z,26.12
2019-06-26T07:37:09.471Z,26.12
2019-06-26T07:38:09.808Z,26.19
2019-06-26T07:39:10.260Z,26.19
2019-06-26T07:40:09.709Z,26.25
2019-06-26T07:41:10.318Z,26.25
2019-06-26T07:42:09.706Z,26.25
2019-06-26T07:43:10.444Z,26.31
2019-06-26T07:44:09.746Z,26.31
2019-06-26T07:45:10.369Z,26.31
2019-06-26T07:46:09.808Z,26.31
2019-06-26T07:47:46.400Z,26.31
2019-06-26T07:48:09.751Z,26.31
2019-06-26T07:49:10.019Z,26.31
2019-06-26T07:50:09.732Z,26.31
2019-06-26T07:51:10.145Z,26.31
2019-06-26T07:52:09.383Z,26.31
2019-06-26T07:53:09.605Z,26.37
2019-06-26T07:54:09.874Z,26.37
2019-06-26T07:55:14.214Z,26.37
2019-06-26T07:56:09.943Z,26.37
2019-06-26T07:57:09.256Z,26.31
2019-06-26T07:58:10.006Z,26.31
2019-06-26T07:59:09.244Z,26.31
2019-06-26T08:00:12.870Z,26.37
2019-06-26T08:01:09.326Z,26.37
2019-06-26T08:02:09.592Z,26.44
2019-06-26T08:03:10.854Z,26.44
2019-06-26T08:04:10.087Z,26.44
2019-06-26T08:05:09.496Z,26.5
2019-06-26T08:06:09.986Z,26.56
2019-06-26T08:07:09.460Z,26.56
2019-06-26T08:08:13.463Z,26.62
2019-06-26T08:09:24.332Z,26.62
2019-06-26T08:10:28.803Z,26.69
2019-06-26T08:12:10.158Z,26.69
2019-06-26T08:13:09.825Z,26.75
2019-06-26T08:14:10.236Z,26.75
2019-06-26T08:15:09.795Z,26.75
2019-06-26T08:16:10.170Z,26.75
2019-06-26T08:17:09.846Z,26.69
2019-06-26T08:18:10.232Z,26.69
2019-06-26T08:19:09.540Z,26.75
2019-06-26T08:20:10.256Z,26.75
2019-06-26T08:21:19.012Z,26.75
2019-06-26T08:22:09.292Z,26.81
2019-06-26T08:23:09.628Z,26.81
2019-06-26T08:24:09.863Z,26.81
2019-06-26T08:25:10.322Z,26.87
2019-06-26T08:26:09.634Z,26.87
2019-06-26T08:27:12.885Z,26.87
2019-06-26T08:28:09.658Z,26.87
2019-06-26T08:29:09.986Z,26.87
2019-06-26T08:30:09.705Z,26.87
2019-06-26T08:31:10.040Z,26.87
2019-06-26T08:32:09.427Z,26.87
2019-06-26T08:33:09.807Z,26.94
2019-06-26T08:34:10.201Z,27
2019-06-26T08:35:09.604Z,27
2019-06-26T08:36:10.066Z,27
2019-06-26T08:37:09.411Z,27
2019-06-26T08:38:20.437Z,27
2019-06-26T08:39:09.867Z,27
2019-06-26T08:40:10.430Z,27.06
2019-06-26T08:41:09.709Z,27.06
2019-06-26T08:42:10.110Z,27.12
2019-06-26T08:43:09.586Z,27.12
2019-06-26T08:44:09.789Z,27.12
2019-06-26T08:45:10.371Z,27.12
2019-06-26T08:46:09.714Z,27.19
2019-06-26T08:47:10.031Z,27.19
2019-06-26T08:48:44.157Z,27.25
2019-06-26T08:49:26.708Z,27.25
2019-06-26T08:50:10.450Z,27.25
2019-06-26T08:51:09.824Z,27.31
2019-06-26T08:52:10.194Z,27.37
2019-06-26T08:53:09.637Z,27.37
2019-06-26T08:54:11.093Z,27.37
2019-06-26T08:55:09.475Z,27.44
2019-06-26T08:56:09.864Z,27.44
2019-06-26T08:57:09.239Z,27.37
2019-06-26T08:58:09.679Z,27.37
2019-06-26T08:59:09.927Z,27.37
2019-06-26T09:00:09.573Z,27.44
2019-06-26T09:01:09.677Z,27.44
2019-06-26T09:02:10.013Z,27.5
2019-06-26T09:03:09.458Z,27.5
2019-06-26T09:04:09.803Z,27.56
2019-06-26T09:05:10.205Z,27.56
2019-06-26T09:06:09.569Z,27.62
2019-06-26T09:07:09.961Z,27.62
2019-06-26T09:08:09.558Z,27.62
2019-06-26T09:09:10.139Z,27.69
2019-06-26T09:10:09.738Z,27.75
2019-06-26T09:11:10.106Z,27.75
2019-06-26T09:12:09.447Z,27.75
2019-06-26T09:13:09.805Z,27.81
2019-06-26T09:14:10.124Z,27.81
2019-06-26T09:15:09.807Z,27.81
2019-06-26T09:16:10.092Z,27.81
2019-06-26T09:17:09.502Z,27.81
2019-06-26T09:18:09.768Z,27.87
2019-06-26T09:19:10.102Z,27.87
2019-06-26T09:20:09.565Z,27.81
2019-06-26T09:21:09.891Z,27.81
2019-06-26T09:22:09.255Z,27.81
2019-06-26T09:23:09.514Z,27.87
2019-06-26T09:24:09.810Z,27.87
2019-06-26T09:25:27.440Z,27.87
2019-06-26T09:26:09.851Z,27.87
2019-06-26T09:27:10.349Z,27.81
2019-06-26T09:28:09.751Z,27.81
2019-06-26T09:29:10.424Z,27.81
2019-06-26T09:30:10.178Z,27.87
2019-06-26T09:31:09.479Z,27.87
2019-06-26T09:32:09.908Z,27.94
2019-06-26T09:33:09.353Z,28
2019-06-26T09:34:09.741Z,28.06
2019-06-26T09:35:10.095Z,28.06
2019-06-26T09:36:13.231Z,28.06
2019-06-26T09:37:09.859Z,28.06
2019-06-26T09:38:09.434Z,28.06
2019-06-26T09:39:09.856Z,28.06
2019-06-26T09:40:10.399Z,28.06
2019-06-26T09:41:09.689Z,28.12
2019-06-26T09:42:09.925Z,28.19
2019-06-26T09:43:09.493Z,28.12
2019-06-26T09:44:09.783Z,28.12
2019-06-26T09:45:10.260Z,28.06
2019-06-26T09:46:09.935Z,28
2019-06-26T09:47:09.259Z,28
2019-06-26T09:48:09.703Z,28
2019-06-26T09:49:10.078Z,28
2019-06-26T09:50:09.678Z,28.06
2019-06-26T09:51:10.109Z,28.06
2019-06-26T09:52:09.515Z,28.12
2019-06-26T09:53:11.704Z,28.19
2019-06-26T09:54:09.997Z,28.25
2019-06-26T09:55:09.538Z,28.31
2019-06-26T09:56:10.221Z,28.31
2019-06-26T09:57:09.619Z,28.37
2019-06-26T09:58:13.088Z,28.44
2019-06-26T09:59:09.594Z,28.44
2019-06-26T10:00:10.033Z,28.5
2019-06-26T10:01:10.384Z,28.5
2019-06-26T10:02:09.679Z,28.5
2019-06-26T10:03:10.154Z,28.56
2019-06-26T10:04:09.474Z,28.56
2019-06-26T10:05:09.895Z,28.62
2019-06-26T10:06:09.336Z,28.62
2019-06-26T10:07:09.643Z,28.69
2019-06-26T10:08:10.428Z,28.69
2019-06-26T10:09:09.972Z,28.69
2019-06-26T10:10:09.533Z,28.69
2019-06-26T10:11:09.989Z,28.75
2019-06-26T10:12:09.341Z,28.75
2019-06-26T10:13:09.874Z,28.75
2019-06-26T10:14:10.989Z,28.75
2019-06-26T10:15:09.544Z,28.69
2019-06-26T10:16:10.189Z,28.69
2019-06-26T10:17:09.455Z,28.62
2019-06-26T10:18:09.792Z,28.62
2019-06-26T10:19:16.473Z,28.62
2019-06-26T10:20:10.032Z,28.69
2019-06-26T10:21:09.413Z,28.69
2019-06-26T10:22:09.680Z,28.75
2019-06-26T10:23:09.960Z,28.81
2019-06-26T10:24:09.432Z,28.81
2019-06-26T10:25:14.535Z,28.81
2019-06-26T10:26:09.954Z,28.81
2019-06-26T10:27:09.310Z,28.87
2019-06-26T10:28:09.869Z,28.87
2019-06-26T10:29:09.277Z,28.94
2019-06-26T10:30:09.832Z,29
2019-06-26T10:31:10.355Z,29
2019-06-26T10:32:09.910Z,29
2019-06-26T10:33:09.235Z,29.06
2019-06-26T10:34:13.468Z,29.31
2019-06-26T10:35:09.870Z,29.69
2019-06-26T10:36:09.483Z,30.19
2019-06-26T10:37:09.751Z,30.69
2019-06-26T10:38:10.007Z,31.12
2019-06-26T10:39:09.770Z,31.56
2019-06-26T10:40:10.483Z,32.06
2019-06-26T10:41:09.980Z,32.25
2019-06-26T10:42:09.319Z,32.5
2019-06-26T10:43:09.834Z,32.81
2019-06-26T10:44:10.309Z,33.06
2019-06-26T10:45:09.754Z,33.31
2019-06-26T10:46:09.420Z,33.44
2019-06-26T10:47:10.672Z,33.56
2019-06-26T10:48:10.138Z,33.81
2019-06-26T10:49:22.659Z,33.69
2019-06-26T10:50:10.364Z,33.63
2019-06-26T10:51:09.650Z,33.63
2019-06-26T10:52:09.938Z,33.69
2019-06-26T10:53:09.271Z,33.81
2019-06-26T10:54:09.524Z,33.94
2019-06-26T10:55:09.996Z,34.13
2019-06-26T10:56:09.322Z,34.31
2019-06-26T10:57:09.594Z,34.31
2019-06-26T10:58:09.948Z,34.38
2019-06-26T10:59:09.246Z,34.06
2019-06-26T11:00:15.146Z,33.94
2019-06-26T11:01:09.448Z,33.94
2019-06-26T11:02:09.819Z,34.06
2019-06-26T11:03:10.701Z,34.19
2019-06-26T11:04:10.317Z,34.31
2019-06-26T11:05:11.135Z,34.44
2019-06-26T11:06:12.107Z,34.5
2019-06-26T11:07:09.913Z,34.56
2019-06-26T11:08:09.243Z,34.5
2019-06-26T11:09:09.765Z,34.63
2019-06-26T11:10:10.452Z,34.75
2019-06-26T11:11:09.717Z,34.75
2019-06-26T11:12:10.032Z,34.88
2019-06-26T11:13:09.395Z,34.88
2019-06-26T11:14:09.720Z,34.94
2019-06-26T11:15:10.302Z,35
2019-06-26T11:16:09.673Z,35
2019-06-26T11:17:09.991Z,35
2019-06-26T11:18:09.369Z,35
2019-06-26T11:19:09.616Z,34.94
2019-06-26T11:20:10.529Z,34.88
2019-06-26T11:21:09.898Z,34.75
2019-06-26T11:22:09.417Z,34.75
2019-06-26T11:23:09.790Z,34.88
2019-06-26T11:24:10.056Z,34.88
2019-06-26T11:25:09.467Z,34.88
2019-06-26T11:26:09.828Z,34.88
2019-06-26T11:27:10.248Z,34.94
2019-06-26T11:28:09.604Z,34.94
2019-06-26T11:29:09.879Z,35
2019-06-26T11:30:09.782Z,34.88
2019-06-26T11:31:10.198Z,34.75
2019-06-26T11:32:12.846Z,34.56
2019-06-26T11:33:10.174Z,34.44
2019-06-26T11:34:09.457Z,34.31
2019-06-26T11:35:09.910Z,34.38
2019-06-26T11:36:09.360Z,34.5
2019-06-26T11:37:10.947Z,34.44
2019-06-26T11:38:09.192Z,34.06
2019-06-26T11:39:09.486Z,33.56
2019-06-26T11:40:10.078Z,33.13
2019-06-26T11:41:09.485Z,32.69
2019-06-26T11:42:09.791Z,32.25
2019-06-26T11:43:10.389Z,31.81
2019-06-26T11:44:09.857Z,31.44
2019-06-26T11:45:10.344Z,31.12
2019-06-26T11:46:10.415Z,30.81
2019-06-26T11:47:09.819Z,30.56
2019-06-26T11:48:10.192Z,30.31
2019-06-26T11:49:09.649Z,30.06
2019-06-26T11:50:10.381Z,29.94
2019-06-26T11:51:10.909Z,29.81
2019-06-26T11:52:09.496Z,29.69
2019-06-26T11:53:10.067Z,29.62
2019-06-26T11:54:09.720Z,29.56
2019-06-26T11:55:10.556Z,29.5
2019-06-26T11:56:10.396Z,29.37
2019-06-26T11:57:09.830Z,29.31
2019-06-26T11:58:10.622Z,29.25
2019-06-26T11:59:10.219Z,29.19
2019-06-26T12:00:10.370Z,29.19
2019-06-26T12:01:10.179Z,29.12
2019-06-26T12:02:09.829Z,29.12
2019-06-26T12:03:13.186Z,29.12
2019-06-26T12:04:09.805Z,29.12
2019-06-26T12:05:10.866Z,29.12
2019-06-26T12:06:24.373Z,29.06
2019-06-26T12:07:09.882Z,29
2019-06-26T12:08:09.331Z,28.94
2019-06-26T12:09:09.854Z,28.81
2019-06-26T12:10:11.213Z,28.75
2019-06-26T12:11:09.683Z,28.62
2019-06-26T12:12:10.115Z,28.5
2019-06-26T12:13:10.830Z,28.44
2019-06-26T12:14:10.190Z,28.37
2019-06-26T12:15:09.931Z,28.31
2019-06-26T12:16:09.318Z,28.31
2019-06-26T12:17:09.625Z,28.44
2019-06-26T12:18:09.929Z,28.5
2019-06-26T12:19:09.356Z,28.56
2019-06-26T12:20:24.821Z,28.69
2019-06-26T12:21:10.208Z,28.69
2019-06-26T12:22:09.537Z,28.56
2019-06-26T12:23:09.941Z,28.37
2019-06-26T12:24:09.325Z,28.31
2019-06-26T12:25:10.739Z,28.19
2019-06-26T12:26:10.197Z,28.12
2019-06-26T12:27:09.674Z,28.12
2019-06-26T12:28:09.918Z,28.12
2019-06-26T12:29:09.250Z,28.25
2019-06-26T12:30:09.813Z,28.37
2019-06-26T12:31:10.175Z,28.44
2019-06-26T12:32:09.639Z,28.62
2019-06-26T12:33:10.024Z,28.56
2019-06-26T12:34:09.380Z,28.5
2019-06-26T12:35:09.970Z,28.44
2019-06-26T12:36:12.451Z,28.44
2019-06-26T12:37:10.038Z,28.31
2019-06-26T12:38:09.410Z,28.31
2019-06-26T12:39:10.070Z,28.37
2019-06-26T12:40:10.268Z,28.5
2019-06-26T12:41:09.546Z,28.56
2019-06-26T12:42:09.888Z,28.56
2019-06-26T12:43:09.183Z,28.44
2019-06-26T12:44:09.778Z,28.31
2019-06-26T12:45:10.622Z,28.12
2019-06-26T12:46:09.870Z,27.94
2019-06-26T12:47:09.297Z,27.81
2019-06-26T12:48:09.568Z,27.62
2019-06-26T12:49:09.822Z,27.5
2019-06-26T12:50:10.968Z,27.37
2019-06-26T12:51:09.346Z,27.31
2019-06-26T12:52:09.713Z,27.25
2019-06-26T12:53:10.007Z,27.25
2019-06-26T12:54:09.372Z,27.25
2019-06-26T12:55:09.868Z,27.25
2019-06-26T12:56:09.284Z,27.25
2019-06-26T12:57:09.816Z,27.56
2019-06-26T12:58:24.104Z,27.94
2019-06-26T12:59:09.424Z,27.94
2019-06-26T13:00:10.148Z,28.06